Time,TemperatureF,DewpointF,PressureIn,WindDirection,WindDirectionDegrees,WindSpeedMPH,WindSpeedGustMPH,Humidity,HourlyPrecipIn,Conditions,Clouds,dailyrainin,SoftwareType,DateUTC
2013-06-06 00:07:00,64.2,57.0,30.06,NNE,29,0.0,2.0,77,0.00,,,0.00,weatherlink.com 1.10,2013-06-06 07:07:00,
2013-06-06 00:22:00,63.6,57.0,30.06,North,349,2.0,4.0,78,0.00,,,0.00,weatherlink.com 1.10,2013-06-06 07:22:00,
2013-06-06 00:37:00,63.0,56.0,30.06,NE,38,0.0,2.0,79,0.00,,,0.00,weatherlink.com 1.10,2013-06-06 07:37:00,
2013-06-06 00:52:00,62.5,56.0,30.07,NNW,345,0.0,2.0,80,0.00,,,0.00,weatherlink.com 1.10,2013-06-06 07:52:00,
2013-06-06 01:07:00,62.1,56.0,30.06,East,91,0.0,2.0,80,0.00,,,0.00,weatherlink.com 1.10,2013-06-06 08:07:00,
2013-06-06 01:22:00,61.7,56.0,30.06,North,358,0.0,2.0,81,0.00,,,0.00,weatherlink.com 1.10,2013-06-06 08:22:00,
2013-06-06 01:37:00,61.5,56.0,30.06,NE,42,0.0,3.0,82,0.00,,,0.00,weatherlink.com 1.10,2013-06-06 08:37:00,
2013-06-06 01:52:00,61.5,56.0,30.06,North,349,0.0,2.0,82,0.00,,,0.00,weatherlink.com 1.10,2013-06-06 08:52:00,
2013-06-06 02:07:00,61.4,56.0,30.07,ENE,63,0.0,2.0,81,0.00,,,0.00,weatherlink.com 1.10,2013-06-06 09:07:00,
2013-06-06 02:22:00,60.8,55.0,30.07,North,360,0.0,2.0,82,0.00,,,0.00,weatherlink.com 1.10,2013-06-06 09:22:00,
2013-06-06 02:37:00,60.3,55.0,30.07,NNW,332,0.0,2.0,83,0.00,,,0.00,weatherlink.com 1.10,2013-06-06 09:37:00,
2013-06-06 02:53:00,60.3,55.0,30.07,ENE,60,0.0,2.0,83,0.00,,,0.00,weatherlink.com 1.10,2013-06-06 09:53:00,
2013-06-06 03:08:00,59.8,55.0,30.07,NNE,20,0.0,1.0,84,0.00,,,0.00,weatherlink.com 1.10,2013-06-06 10:08:00,
2013-06-06 03:23:00,59.5,55.0,30.07,North,1,0.0,2.0,84,0.00,,,0.00,weatherlink.com 1.10,2013-06-06 10:23:00,
2013-06-06 03:38:00,59.3,55.0,30.07,NE,39,0.0,2.0,84,0.00,,,0.00,weatherlink.com 1.10,2013-06-06 10:38:00,
2013-06-06 03:53:00,59.3,55.0,30.08,NNW,347,0.0,2.0,84,0.00,,,0.00,weatherlink.com 1.10,2013-06-06 10:53:00,
2013-06-06 04:08:00,59.0,55.0,30.08,NNE,23,0.0,2.0,85,0.00,,,0.00,weatherlink.com 1.10,2013-06-06 11:08:00,
2013-06-06 04:23:00,58.8,54.0,30.08,NW,309,0.0,2.0,85,0.00,,,0.00,weatherlink.com 1.10,2013-06-06 11:23:00,
2013-06-06 04:38:00,58.4,54.0,30.09,NNW,334,0.0,1.0,85,0.00,,,0.00,weatherlink.com 1.10,2013-06-06 11:38:00,
2013-06-06 04:53:00,58.2,54.0,30.09,NW,315,0.0,1.0,85,0.00,,,0.00,weatherlink.com 1.10,2013-06-06 11:53:00,
2013-06-06 05:08:00,57.9,54.0,30.09,WNW,301,0.0,1.0,85,0.00,,,0.00,weatherlink.com 1.10,2013-06-06 12:08:00,
2013-06-06 05:23:00,57.7,54.0,30.09,NE,42,0.0,1.0,86,0.00,,,0.00,weatherlink.com 1.10,2013-06-06 12:23:00,
2013-06-06 05:38:00,57.2,53.0,30.09,WNW,303,0.0,2.0,87,0.00,,,0.00,weatherlink.com 1.10,2013-06-06 12:38:00,
2013-06-06 05:53:00,57.1,53.0,30.10,North,5,0.0,1.0,87,0.00,,,0.00,weatherlink.com 1.10,2013-06-06 12:53:00,
2013-06-06 06:08:00,57.0,53.0,30.09,North,353,0.0,1.0,87,0.00,,,0.00,weatherlink.com 1.10,2013-06-06 13:08:00,
2013-06-06 06:23:00,56.9,53.0,30.09,WNW,303,0.0,2.0,88,0.00,,,0.00,weatherlink.com 1.10,2013-06-06 13:23:00,
2013-06-06 06:38:00,58.0,54.0,30.10,NNW,332,0.0,2.0,85,0.00,,,0.00,weatherlink.com 1.10,2013-06-06 13:38:00,
2013-06-06 06:53:00,58.5,54.0,30.10,NW,325,1.0,2.0,84,0.00,,,0.00,weatherlink.com 1.10,2013-06-06 13:53:00,
2013-06-06 07:08:00,59.7,55.0,30.11,West,271,0.0,2.0,83,0.00,,,0.00,weatherlink.com 1.10,2013-06-06 14:08:00,
2013-06-06 07:23:00,61.9,55.0,30.11,West,261,1.0,3.0,78,0.00,,,0.00,weatherlink.com 1.10,2013-06-06 14:23:00,
2013-06-06 07:38:00,63.7,56.0,30.11,WSW,250,0.0,3.0,75,0.00,,,0.00,weatherlink.com 1.10,2013-06-06 14:38:00,
2013-06-06 07:53:00,65.1,56.0,30.11,NW,318,0.0,4.0,73,0.00,,,0.00,weatherlink.com 1.10,2013-06-06 14:53:00,
2013-06-06 08:08:00,65.5,55.0,30.11,ENE,68,2.0,6.0,70,0.00,,,0.00,weatherlink.com 1.10,2013-06-06 15:08:00,
2013-06-06 08:23:00,65.4,56.0,30.11,NNW,329,1.0,5.0,71,0.00,,,0.00,weatherlink.com 1.10,2013-06-06 15:23:00,
2013-06-06 08:38:00,66.7,57.0,30.11,NNW,339,0.0,5.0,71,0.00,,,0.00,weatherlink.com 1.10,2013-06-06 15:38:00,
2013-06-06 08:53:00,67.6,57.0,30.11,SW,226,0.0,5.0,68,0.00,,,0.00,weatherlink.com 1.10,2013-06-06 15:53:00,
2013-06-06 09:08:00,68.3,56.0,30.11,NW,323,1.0,4.0,66,0.00,,,0.00,weatherlink.com 1.10,2013-06-06 16:08:00,
2013-06-06 09:39:00,69.1,57.0,30.12,West,273,0.0,7.0,66,0.00,,,0.00,weatherlink.com 1.10,2013-06-06 16:39:00,
2013-06-06 09:53:00,69.8,57.0,30.11,NE,37,2.0,5.0,65,0.00,,,0.00,weatherlink.com 1.10,2013-06-06 16:53:00,
2013-06-06 10:08:00,71.5,58.0,30.10,NNE,29,3.0,5.0,63,0.00,,,0.00,weatherlink.com 1.10,2013-06-06 17:08:00,
2013-06-06 10:23:00,72.0,58.0,30.11,NNE,26,2.0,5.0,62,0.00,,,0.00,weatherlink.com 1.10,2013-06-06 17:23:00,
2013-06-06 10:38:00,72.2,58.0,30.10,North,5,1.0,6.0,62,0.00,,,0.00,weatherlink.com 1.10,2013-06-06 17:38:00,
2013-06-06 10:54:00,73.4,58.0,30.10,ENE,65,1.0,5.0,59,0.00,,,0.00,weatherlink.com 1.10,2013-06-06 17:54:00,
2013-06-06 11:08:00,76.0,59.0,30.10,NE,41,2.0,4.0,55,0.00,,,0.00,weatherlink.com 1.10,2013-06-06 18:08:00,
2013-06-06 11:23:00,75.2,60.0,30.10,NW,311,0.0,5.0,59,0.00,,,0.00,weatherlink.com 1.10,2013-06-06 18:23:00,
2013-06-06 11:39:00,76.7,59.0,30.10,ESE,116,0.0,4.0,54,0.00,,,0.00,weatherlink.com 1.10,2013-06-06 18:39:00,
2013-06-06 11:54:00,76.5,59.0,30.09,NNW,339,1.0,6.0,54,0.00,,,0.00,weatherlink.com 1.10,2013-06-06 18:54:00,
2013-06-06 12:09:00,77.3,59.0,30.10,ENE,65,0.0,5.0,54,0.00,,,0.00,weatherlink.com 1.10,2013-06-06 19:09:00,
2013-06-06 12:24:00,77.9,59.0,30.09,ENE,77,2.0,5.0,52,0.00,,,0.00,weatherlink.com 1.10,2013-06-06 19:24:00,
2013-06-06 12:39:00,78.8,59.0,30.09,NW,320,2.0,6.0,50,0.00,,,0.00,weatherlink.com 1.10,2013-06-06 19:39:00,
2013-06-06 12:54:00,80.3,59.0,30.09,NW,304,2.0,6.0,49,0.00,,,0.00,weatherlink.com 1.10,2013-06-06 19:54:00,
2013-06-06 13:09:00,80.4,59.0,30.09,NE,35,3.0,5.0,48,0.00,,,0.00,weatherlink.com 1.10,2013-06-06 20:09:00,
2013-06-06 13:24:00,80.3,58.0,30.08,NW,321,0.0,5.0,47,0.00,,,0.00,weatherlink.com 1.10,2013-06-06 20:24:00,
2013-06-06 13:39:00,80.8,59.0,30.08,ENE,74,1.0,7.0,48,0.00,,,0.00,weatherlink.com 1.10,2013-06-06 20:39:00,
2013-06-06 13:54:00,82.7,59.0,30.08,ENE,75,2.0,5.0,45,0.00,,,0.00,weatherlink.com 1.10,2013-06-06 20:54:00,
2013-06-06 14:09:00,80.5,58.0,30.08,ENE,58,5.0,8.0,47,0.00,,,0.00,weatherlink.com 1.10,2013-06-06 21:09:00,
2013-06-06 14:24:00,81.9,60.0,30.07,NNW,336,4.0,9.0,47,0.00,,,0.00,weatherlink.com 1.10,2013-06-06 21:24:00,
2013-06-06 14:39:00,83.1,58.0,30.07,NE,44,3.0,7.0,43,0.00,,,0.00,weatherlink.com 1.10,2013-06-06 21:39:00,
2013-06-06 14:54:00,82.6,60.0,30.06,ENE,67,0.0,6.0,46,0.00,,,0.00,weatherlink.com 1.10,2013-06-06 21:54:00,
2013-06-06 15:09:00,82.7,57.0,30.06,NNW,335,2.0,6.0,41,0.00,,,0.00,weatherlink.com 1.10,2013-06-06 22:09:00,
2013-06-06 15:24:00,83.2,58.0,30.05,SE,138,0.0,7.0,43,0.00,,,0.00,weatherlink.com 1.10,2013-06-06 22:24:00,
2013-06-06 15:39:00,83.9,58.0,30.05,West,264,1.0,8.0,41,0.00,,,0.00,weatherlink.com 1.10,2013-06-06 22:39:00,
2013-06-06 15:54:00,83.3,58.0,30.05,North,352,3.0,6.0,43,0.00,,,0.00,weatherlink.com 1.10,2013-06-06 22:54:00,
2013-06-06 16:09:00,84.1,60.0,30.05,NW,311,1.0,4.0,44,0.00,,,0.00,weatherlink.com 1.10,2013-06-06 23:09:00,
2013-06-06 16:24:00,85.7,58.0,30.05,NE,46,2.0,6.0,39,0.00,,,0.00,weatherlink.com 1.10,2013-06-06 23:24:00,
2013-06-06 16:39:00,85.0,56.0,30.05,NNW,339,0.0,7.0,37,0.00,,,0.00,weatherlink.com 1.10,2013-06-06 23:39:00,
2013-06-06 16:54:00,85.2,57.0,30.05,NW,315,1.0,5.0,38,0.00,,,0.00,weatherlink.com 1.10,2013-06-06 23:54:00,
2013-06-06 17:09:00,85.1,55.0,30.05,WNW,300,2.0,7.0,36,0.00,,,0.00,weatherlink.com 1.10,2013-06-07 00:09:00,
2013-06-06 17:24:00,84.3,57.0,30.05,NNW,343,1.0,4.0,40,0.00,,,0.00,weatherlink.com 1.10,2013-06-07 00:24:00,
2013-06-06 17:39:00,84.4,58.0,30.05,NW,321,3.0,7.0,41,0.00,,,0.00,weatherlink.com 1.10,2013-06-07 00:39:00,
2013-06-06 17:54:00,83.4,60.0,30.05,North,358,0.0,5.0,45,0.00,,,0.00,weatherlink.com 1.10,2013-06-07 00:54:00,
2013-06-06 18:09:00,81.7,59.0,30.05,ENE,68,1.0,6.0,47,0.00,,,0.00,weatherlink.com 1.10,2013-06-07 01:09:00,
2013-06-06 18:24:00,81.7,59.0,30.05,SSW,212,2.0,7.0,46,0.00,,,0.00,weatherlink.com 1.10,2013-06-07 01:24:00,
2013-06-06 18:39:00,81.0,58.0,30.05,NNW,336,2.0,9.0,45,0.00,,,0.00,weatherlink.com 1.10,2013-06-07 01:39:00,
2013-06-06 18:54:00,80.0,58.0,30.05,North,357,2.0,7.0,47,0.00,,,0.00,weatherlink.com 1.10,2013-06-07 01:54:00,
2013-06-06 19:09:00,79.4,59.0,30.05,North,6,3.0,6.0,49,0.00,,,0.00,weatherlink.com 1.10,2013-06-07 02:09:00,
2013-06-06 19:24:00,78.7,59.0,30.05,NW,315,0.0,5.0,51,0.00,,,0.00,weatherlink.com 1.10,2013-06-07 02:24:00,
2013-06-06 19:39:00,78.1,58.0,30.05,NW,311,1.0,4.0,51,0.00,,,0.00,weatherlink.com 1.10,2013-06-07 02:39:00,
2013-06-06 19:54:00,78.6,59.0,30.05,WNW,300,3.0,4.0,52,0.00,,,0.00,weatherlink.com 1.10,2013-06-07 02:54:00,
2013-06-06 20:09:00,77.0,58.0,30.05,NW,319,1.0,2.0,53,0.00,,,0.00,weatherlink.com 1.10,2013-06-07 03:09:00,
2013-06-06 20:24:00,75.5,59.0,30.05,NNW,343,0.0,2.0,57,0.00,,,0.00,weatherlink.com 1.10,2013-06-07 03:24:00,
2013-06-06 20:39:00,74.4,59.0,30.06,WSW,253,0.0,2.0,59,0.00,,,0.00,weatherlink.com 1.10,2013-06-07 03:39:00,
2013-06-06 20:54:00,72.7,59.0,30.07,ENE,75,3.0,3.0,63,0.00,,,0.00,weatherlink.com 1.10,2013-06-07 03:54:00,
2013-06-06 21:09:00,70.3,57.0,30.07,NW,323,2.0,4.0,64,0.00,,,0.00,weatherlink.com 1.10,2013-06-07 04:09:00,
2013-06-06 21:24:00,69.2,56.0,30.07,WNW,294,1.0,6.0,63,0.00,,,0.00,weatherlink.com 1.10,2013-06-07 04:24:00,
2013-06-06 21:39:00,68.5,55.0,30.09,NNW,345,1.0,3.0,63,0.00,,,0.00,weatherlink.com 1.10,2013-06-07 04:39:00,
2013-06-06 21:54:00,67.7,54.0,30.10,NW,309,0.0,4.0,62,0.00,,,0.00,weatherlink.com 1.10,2013-06-07 04:54:00,
2013-06-06 22:09:00,66.5,53.0,30.10,NE,34,0.0,4.0,63,0.00,,,0.00,weatherlink.com 1.10,2013-06-07 05:09:00,
2013-06-06 22:24:00,65.3,53.0,30.11,NW,312,0.0,4.0,65,0.00,,,0.00,weatherlink.com 1.10,2013-06-07 05:24:00,
2013-06-06 22:39:00,64.1,52.0,30.11,West,262,0.0,6.0,66,0.00,,,0.00,weatherlink.com 1.10,2013-06-07 05:39:00,
2013-06-06 22:54:00,63.4,52.0,30.11,NNW,334,0.0,1.0,67,0.00,,,0.00,weatherlink.com 1.10,2013-06-07 05:54:00,
2013-06-06 23:09:00,62.5,52.0,30.12,North,8,0.0,1.0,68,0.00,,,0.00,weatherlink.com 1.10,2013-06-07 06:09:00,
2013-06-06 23:24:00,61.6,52.0,30.12,North,8,0.0,1.0,71,0.00,,,0.00,weatherlink.com 1.10,2013-06-07 06:24:00,
2013-06-06 23:39:00,60.9,52.0,30.13,NW,319,1.0,1.0,72,0.00,,,0.00,weatherlink.com 1.10,2013-06-07 06:39:00,
2013-06-06 23:54:00,60.7,51.0,30.13,WNW,297,0.0,2.0,71,0.00,,,0.00,weatherlink.com 1.10,2013-06-07 06:54:00,